Nellis AFB, NV

2:09 AM PDT on March 30, 2017 (GMT -0700)
Nellis Air Force Base | | Change Station
Active Advisory: High Wind Warning

Elev 1867 ft 36.24 °N, 115.03 °W | Updated 11 minutes ago

Clear
Clear
55 °F
Feels Like 55 °F
N
5
Wind Variable Wind from NE

Today
High -- | Low -- °F
--% Chance of Precip.
Yesterday
High -- | Low -- °F
Precip. -- in
Pressure 29.89 in
Visibility 10.0 miles
Clouds Clear
Dew Point 28 °F
Humidity 35%
Rainfall 0.00 in
Snow Depth Not available.
6:28 AM 7:00 PM
Waxing Crescent, 7% visible
METAR KLSV 300858Z AUTO 04004KT 10SM CLR 13/M02 A2992 RMK AO2 SLP120 T01291022 57016 $
Pressure 29.89 in
Visibility 10.0 miles
Clouds Clear
Dew Point 28 °F
Humidity 35%
Rainfall 0.00 in
Snow Depth Not available.
6:28 AM 7:00 PM
Waxing Crescent, 7% visible
METAR KLSV 300858Z AUTO 04004KT 10SM CLR 13/M02 A2992 RMK AO2 SLP120 T01291022 57016 $

Get Your Daily Forecast Email!

Thanks for signing up!

Be on the lookout for a verification email in your inbox.

You'll start receiving severe weather alerts in your inbox..

×

10-Day Weather Forecast

Almanac

Astronomy

Mar. 30, 2017 Rise Set
Actual Time
Civil Twilight
Nautical Twilight
Astronomical Twilight
Moon
Length of Visible Light
Length of Day
Tomorrow will be .
, % of the Moon is Illuminated

Today's Extremes

State Highs State Lows

Community

WunderPhotos

Upload Photos

1,962,540 photos uploaded!

WunderBlog® & News

Nearby

Air Quality

  Air Quality AQ Index Pollutant
Not available.

Snow Depth

Station Depth Elevation

Earthquake Activity

City Distance Mag. Time & Date
Minimum magnitude displayed is 2.5.

Earthquake Activity

City Distance Mag. Time & Date
Minimum magnitude displayed is 2.5.

Coastal Water Temperatures

Place Temperature

Stations

Nearby Weather Stations

Station Location Temp. Windchill Dew Point Humidity Wind Precip. Elev Updated Type
                   

Watches & Warnings

High Wind Warning
Issued: 2:48 PM MDT Mar. 29, 2017 – National Weather Service

... High Wind Warning remains in effect from 8 am PDT /8 am MST/
to 11 PM PDT /11 PM MST/ Thursday...

* timing... winds will increase significantly Thursday... peaking
Thursday afternoon and evening then diminishing Thursday
night.

* Winds... southwest to northwest winds gusting to around 60 mph.
Up to 70 mph in the mountains.

* Impacts... strong winds may damage to roofs... trees... and
unsecured structures. Dangerous travel conditions due to
strong Crosswinds and areas of blowing dust are expected.
Dangerous boating conditions are expected on area lakes due to
significant wave activity.

Precautionary/preparedness actions...

Check the forecast and Road conditions before traveling and be
prepared for reduced visibility and strong Crosswinds...
especially in high-profile vehicles. Secure loose objects and
temporary fences. Take down temporary structures such as tents to
avoid damage. Avoid boating on area lakes during periods of
strong winds.